Time;durP1;ratioP1;P1;durP2;ratioP2;P2;SDS_P1;SDS_P2;PMS_P1;PMS_P2;Temp;Humidity;BMP_temperature;BMP_pressure;BME280_temperature;BME280_humidity;BME280_pressure;Samples;Min_cycle;Max_cycle;Signal;HPM_P1;HPM_P2
2023/06/23 00:00:13;;;;;;;6.63;5.03;;;19.30;96.40;;;;;;4967320;28;20226;-89
2023/06/23 00:02:40;;;;;;;8.93;5.65;;;19.20;96.30;;;;;;4970132;28;20201;-88
2023/06/23 00:05:08;;;;;;;7.13;4.43;;;19.20;96.40;;;;;;4945135;28;20621;-88
2023/06/23 00:07:36;;;;;;;3.70;2.75;;;19.20;96.30;;;;;;4973985;28;20292;-89
2023/06/23 00:10:06;;;;;;;7.22;2.33;;;19.10;96.70;;;;;;4956978;28;20197;-89
2023/06/23 00:12:35;;;;;;;3.38;3.05;;;19.00;97.00;;;;;;4968355;28;20360;-89
2023/06/23 00:15:03;;;;;;;5.90;4.13;;;19.00;96.80;;;;;;4960359;28;20221;-89
2023/06/23 00:17:30;;;;;;;4.40;3.00;;;19.00;96.60;;;;;;4969616;28;20595;-88
2023/06/23 00:19:57;;;;;;;7.95;2.10;;;19.00;96.40;;;;;;4967100;28;20208;-89
2023/06/23 00:22:25;;;;;;;7.55;4.72;;;18.90;96.00;;;;;;4969051;28;20650;-88
2023/06/23 00:24:51;;;;;;;6.15;4.85;;;18.90;96.30;;;;;;4966478;28;20640;-89
2023/06/23 00:27:20;;;;;;;3.47;1.88;;;18.90;96.00;;;;;;4971581;28;20212;-89
2023/06/23 00:29:47;;;;;;;9.65;5.60;;;18.80;95.90;;;;;;4955067;28;20208;-89
2023/06/23 00:32:14;;;;;;;2.90;2.20;;;18.80;96.30;;;;;;4964878;28;20217;-88
2023/06/23 00:34:41;;;;;;;8.35;5.53;;;18.70;96.40;;;;;;4962816;28;20528;-89
2023/06/23 00:37:09;;;;;;;5.18;3.10;;;18.70;96.70;;;;;;4949495;28;20200;-88
2023/06/23 00:39:36;;;;;;;5.47;4.30;;;18.60;96.70;;;;;;4964066;28;20897;-88
2023/06/23 00:42:05;;;;;;;3.72;3.28;;;18.70;96.30;;;;;;4966637;28;20220;-88
2023/06/23 00:44:34;;;;;;;7.95;2.28;;;18.70;96.00;;;;;;4946746;28;20661;-89
2023/06/23 00:47:02;;;;;;;3.15;2.00;;;18.70;96.00;;;;;;4969099;28;20205;-89
2023/06/23 00:49:29;;;;;;;5.22;3.15;;;18.70;96.00;;;;;;4969440;28;20207;-89
2023/06/23 00:51:58;;;;;;;6.53;2.92;;;18.70;96.40;;;;;;4969672;28;20232;-89
2023/06/23 00:54:28;;;;;;;7.00;3.60;;;18.70;96.10;;;;;;4963085;28;20203;-89
2023/06/23 00:56:58;;;;;;;4.15;1.98;;;18.80;96.00;;;;;;4972623;28;20296;-89
2023/06/23 00:59:28;;;;;;;3.92;2.45;;;18.70;95.80;;;;;;4966143;28;20240;-88
2023/06/23 01:01:58;;;;;;;3.92;2.05;;;18.70;96.70;;;;;;4951022;28;20203;-89
2023/06/23 01:04:26;;;;;;;3.50;2.08;;;18.70;96.50;;;;;;4964928;28;20208;-89
2023/06/23 01:07:07;;;;;;;4.93;2.33;;;18.60;96.90;;;;;;4965973;28;20201;-88
2023/06/23 01:09:44;;;;;;;4.93;2.35;;;18.50;97.20;;;;;;4966219;28;20205;-89
2023/06/23 01:12:20;;;;;;;3.28;2.60;;;18.40;97.20;;;;;;4964146;28;20227;-89
2023/06/23 01:14:53;;;;;;;4.25;2.38;;;18.50;97.20;;;;;;4967552;28;20696;-88
2023/06/23 01:17:27;;;;;;;4.13;1.95;;;18.70;95.90;;;;;;4936034;28;20209;-88
2023/06/23 01:20:10;;;;;;;3.28;2.22;;;18.70;94.60;;;;;;4956522;28;20209;-88
2023/06/23 01:22:44;;;;;;;3.53;2.13;;;18.60;95.30;;;;;;4961567;28;20224;-88
2023/06/23 01:25:22;;;;;;;5.68;2.33;;;18.60;95.10;;;;;;4952890;28;20209;-88
2023/06/23 01:28:07;;;;;;;4.65;2.15;;;18.60;95.60;;;;;;4963386;28;20204;-88
2023/06/23 01:30:38;;;;;;;3.42;1.80;;;18.60;95.30;;;;;;4947483;28;20230;-87
2023/06/23 01:33:10;;;;;;;3.75;2.38;;;18.50;95.00;;;;;;4967310;28;20587;-88
2023/06/23 01:35:42;;;;;;;2.65;2.00;;;18.60;94.50;;;;;;4966196;28;20259;-88
2023/06/23 01:38:15;;;;;;;2.25;2.05;;;18.50;94.60;;;;;;4965763;28;20204;-88
2023/06/23 01:40:44;;;;;;;2.45;2.00;;;18.60;94.50;;;;;;4969399;28;20200;-88
2023/06/23 01:43:15;;;;;;;3.67;2.08;;;18.60;94.90;;;;;;4970052;28;20209;-89
2023/06/23 01:45:45;;;;;;;1.85;1.63;;;18.60;94.50;;;;;;4969010;28;20209;-88
2023/06/23 01:48:13;;;;;;;3.28;2.10;;;18.60;94.00;;;;;;4971747;28;20204;-87
2023/06/23 01:50:42;;;;;;;3.65;2.15;;;18.60;94.10;;;;;;4964657;28;20248;-88
2023/06/23 01:53:10;;;;;;;2.20;2.00;;;18.60;94.20;;;;;;4970682;28;20227;-88
2023/06/23 01:55:39;;;;;;;2.25;2.03;;;18.50;93.80;;;;;;4961341;28;20200;-88
2023/06/23 01:58:08;;;;;;;4.28;2.20;;;18.50;94.40;;;;;;4963679;28;20200;-88
2023/06/23 02:00:37;;;;;;;2.47;2.00;;;18.50;93.80;;;;;;4959829;28;20193;-88
2023/06/23 02:03:06;;;;;;;5.88;2.03;;;18.60;94.20;;;;;;4963443;28;20658;-88
2023/06/23 02:05:36;;;;;;;2.30;2.10;;;18.60;94.10;;;;;;4949646;28;20205;-89
2023/06/23 02:08:04;;;;;;;3.05;2.20;;;18.70;93.70;;;;;;4964889;28;20248;-88
2023/06/23 02:10:32;;;;;;;2.95;1.90;;;18.80;93.20;;;;;;4969413;28;20919;-87
2023/06/23 02:13:00;;;;;;;3.00;2.20;;;18.80;93.30;;;;;;4970311;28;20216;-88
2023/06/23 02:15:29;;;;;;;1.90;1.80;;;18.80;92.80;;;;;;4965481;28;20201;-88
2023/06/23 02:17:56;;;;;;;2.25;1.95;;;18.70;93.00;;;;;;4959543;28;20225;-88
2023/06/23 02:20:26;;;;;;;2.63;1.98;;;18.70;93.30;;;;;;4949565;28;20215;-88
2023/06/23 02:22:54;;;;;;;2.10;1.90;;;18.70;93.50;;;;;;4963842;28;20224;-88
2023/06/23 02:25:22;;;;;;;1.83;1.73;;;18.80;92.80;;;;;;4963404;28;20208;-88
2023/06/23 02:27:50;;;;;;;4.15;2.28;;;18.70;92.50;;;;;;4965976;28;20257;-87
2023/06/23 02:30:18;;;;;;;2.92;2.15;;;18.70;93.00;;;;;;4967568;28;20693;-88
2023/06/23 02:32:46;;;;;;;5.93;2.60;;;18.70;93.10;;;;;;4954534;28;20251;-88
2023/06/23 02:35:13;;;;;;;4.53;2.05;;;18.70;93.00;;;;;;4961491;28;20204;-88
2023/06/23 02:37:46;;;;;;;2.03;1.83;;;18.70;93.20;;;;;;4962054;28;20301;-88
2023/06/23 02:40:18;;;;;;;3.83;2.80;;;18.60;93.00;;;;;;4971689;28;20192;-88
2023/06/23 02:42:50;;;;;;;3.88;2.63;;;18.70;93.10;;;;;;4962611;28;20201;-88
2023/06/23 02:45:21;;;;;;;4.07;2.50;;;18.70;92.70;;;;;;4967436;28;20196;-88
2023/06/23 02:47:50;;;;;;;2.90;2.70;;;18.70;92.90;;;;;;4964135;28;20300;-89
2023/06/23 02:50:21;;;;;;;2.30;2.10;;;18.70;93.20;;;;;;4964881;28;20197;-88
2023/06/23 02:52:53;;;;;;;5.15;2.03;;;18.70;93.10;;;;;;4961285;28;20270;-88
2023/06/23 02:55:22;;;;;;;3.13;2.20;;;18.60;93.00;;;;;;4962846;28;20203;-87
2023/06/23 02:57:53;;;;;;;2.95;1.88;;;18.70;92.50;;;;;;4961646;28;20208;-88
2023/06/23 03:00:23;;;;;;;2.17;1.67;;;18.70;93.10;;;;;;4963012;28;20197;-88
2023/06/23 03:02:54;;;;;;;3.30;2.03;;;18.70;92.60;;;;;;4963925;28;20304;-88
2023/06/23 03:05:22;;;;;;;1.92;1.70;;;18.60;93.00;;;;;;4969453;28;20208;-88
2023/06/23 03:07:52;;;;;;;2.40;2.20;;;18.60;92.80;;;;;;4965878;28;20697;-88
2023/06/23 03:10:20;;;;;;;2.42;1.90;;;18.60;93.30;;;;;;4970463;28;20197;-87
2023/06/23 03:12:47;;;;;;;2.97;2.17;;;18.60;93.40;;;;;;4950141;28;20392;-88
2023/06/23 03:15:16;;;;;;;2.92;1.73;;;18.70;93.20;;;;;;4958171;28;20219;-88
2023/06/23 03:17:45;;;;;;;3.25;1.77;;;18.70;93.30;;;;;;4949654;28;21052;-89
2023/06/23 03:20:19;;;;;;;3.10;2.15;;;18.60;93.20;;;;;;4967304;28;20223;-88
2023/06/23 03:22:49;;;;;;;2.30;2.00;;;18.60;93.70;;;;;;4968615;28;20203;-87
2023/06/23 03:25:26;;;;;;;3.88;2.38;;;18.60;93.40;;;;;;4968745;28;20193;-88
2023/06/23 03:27:56;;;;;;;2.97;1.90;;;18.50;93.40;;;;;;4968251;28;20197;-88
2023/06/23 03:30:27;;;;;;;2.40;2.10;;;18.50;93.60;;;;;;4968228;28;20202;-88
2023/06/23 03:33:00;;;;;;;2.63;2.10;;;18.50;94.00;;;;;;4972687;28;20617;-88
2023/06/23 03:35:33;;;;;;;2.50;1.90;;;18.60;93.80;;;;;;4968975;28;20259;-88
2023/06/23 03:38:04;;;;;;;2.10;1.80;;;18.60;93.70;;;;;;4966365;28;20609;-88
2023/06/23 03:40:39;;;;;;;4.47;1.83;;;18.60;93.70;;;;;;4966080;28;20196;-88
2023/06/23 03:43:12;;;;;;;1.92;1.73;;;18.60;93.40;;;;;;4970779;28;20207;-88
2023/06/23 03:45:40;;;;;;;2.15;1.95;;;18.70;93.90;;;;;;4971950;28;20200;-88
2023/06/23 03:48:10;;;;;;;2.40;1.75;;;18.70;93.90;;;;;;4952372;29;20201;-88
2023/06/23 03:50:41;;;;;;;2.13;1.80;;;18.70;93.90;;;;;;4953450;28;20205;-89
2023/06/23 03:53:11;;;;;;;1.83;1.70;;;18.70;93.80;;;;;;4963615;28;20217;-88
2023/06/23 03:55:41;;;;;;;2.85;2.03;;;18.80;93.60;;;;;;4965085;28;20205;-89
2023/06/23 03:58:10;;;;;;;2.33;1.58;;;18.70;93.60;;;;;;4966156;28;20204;-88
2023/06/23 04:00:38;;;;;;;2.83;1.73;;;18.70;93.50;;;;;;4949195;28;20212;-89
2023/06/23 04:03:07;;;;;;;2.90;1.65;;;18.80;93.30;;;;;;4947990;28;20208;-88
2023/06/23 04:05:36;;;;;;;3.28;1.50;;;18.80;93.60;;;;;;4968931;28;20666;-88
2023/06/23 04:08:05;;;;;;;4.35;1.60;;;18.90;93.20;;;;;;4967149;28;20201;-88
2023/06/23 04:10:36;;;;;;;2.85;1.58;;;18.80;93.40;;;;;;4970602;28;20200;-88
2023/06/23 04:13:05;;;;;;;2.10;1.38;;;18.90;93.70;;;;;;4968595;28;20205;-88
2023/06/23 04:15:34;;;;;;;1.80;1.40;;;18.90;93.50;;;;;;4966678;28;20216;-88
2023/06/23 04:18:03;;;;;;;1.58;1.48;;;18.90;93.70;;;;;;4962263;28;20221;-88
2023/06/23 04:20:32;;;;;;;1.77;1.38;;;19.00;93.80;;;;;;4966258;28;20593;-88
2023/06/23 04:23:00;;;;;;;1.38;1.27;;;19.00;93.40;;;;;;4969004;28;20197;-88
2023/06/23 04:25:27;;;;;;;2.35;1.10;;;19.10;93.60;;;;;;4970842;28;20216;-87
2023/06/23 04:28:00;;;;;;;1.70;1.60;;;19.10;93.60;;;;;;4969532;28;20480;-88
2023/06/23 04:30:31;;;;;;;1.60;1.20;;;19.10;93.50;;;;;;4952658;28;20699;-88
2023/06/23 04:32:58;;;;;;;2.60;1.63;;;19.20;93.20;;;;;;4950844;28;20233;-88
2023/06/23 04:35:25;;;;;;;1.50;1.40;;;19.20;93.80;;;;;;4949717;28;20193;-88
2023/06/23 04:37:59;;;;;;;1.40;1.30;;;19.20;93.20;;;;;;4949273;28;20213;-89
2023/06/23 04:40:33;;;;;;;1.52;1.42;;;19.20;93.70;;;;;;4961736;28;20197;-89
2023/06/23 04:43:09;;;;;;;3.97;1.38;;;19.20;93.70;;;;;;4949507;28;20196;-87
2023/06/23 04:45:41;;;;;;;4.10;1.50;;;19.10;94.40;;;;;;4967663;28;21184;-88
2023/06/23 04:48:12;;;;;;;1.67;1.30;;;19.00;95.00;;;;;;4967032;28;20672;-87
2023/06/23 04:50:41;;;;;;;1.60;1.50;;;19.00;95.80;;;;;;4965878;28;20256;-89
2023/06/23 04:53:15;;;;;;;1.30;1.20;;;18.90;95.70;;;;;;4966890;28;20224;-89
2023/06/23 04:55:45;;;;;;;1.38;1.30;;;18.80;95.90;;;;;;4964038;28;20270;-88
2023/06/23 04:58:13;;;;;;;1.25;1.10;;;18.80;96.20;;;;;;4962368;28;20552;-89
2023/06/23 05:00:43;;;;;;;1.55;1.40;;;18.60;97.30;;;;;;4970590;28;20212;-90
2023/06/23 05:03:11;;;;;;;1.90;1.20;;;18.50;97.70;;;;;;4965146;28;20205;-90
2023/06/23 05:05:41;;;;;;;1.35;1.25;;;18.30;98.60;;;;;;4964657;28;20209;-90
2023/06/23 05:08:09;;;;;;;2.35;1.50;;;18.30;99.20;;;;;;4972743;28;20654;-90
2023/06/23 05:10:38;;;;;;;2.15;1.45;;;18.10;99.90;;;;;;4946645;28;20281;-88
2023/06/23 05:13:08;;;;;;;1.27;1.05;;;18.00;99.90;;;;;;4969500;28;20224;-82
2023/06/23 05:15:35;;;;;;;1.85;1.65;;;17.90;99.90;;;;;;4967504;28;20196;-87
2023/06/23 05:18:06;;;;;;;3.83;1.30;;;17.80;99.90;;;;;;4967624;28;20217;-86
2023/06/23 05:20:34;;;;;;;1.67;1.30;;;17.70;99.90;;;;;;4977960;28;20213;-91
2023/06/23 05:23:06;;;;;;;2.50;1.27;;;17.80;99.90;;;;;;4940677;28;20205;-91
2023/06/23 05:25:34;;;;;;;2.10;1.15;;;17.70;99.90;;;;;;4953622;28;20209;-93
2023/06/23 05:28:03;;;;;;;2.45;1.27;;;17.70;99.90;;;;;;4955820;28;20197;-91
2023/06/23 05:30:30;;;;;;;5.78;1.27;;;17.70;99.90;;;;;;4967176;28;20749;-92
2023/06/23 05:33:01;;;;;;;4.10;1.20;;;17.70;99.90;;;;;;4974529;28;20220;-90
2023/06/23 05:35:32;;;;;;;1.90;1.30;;;17.70;99.90;;;;;;4962341;28;20736;-90
2023/06/23 05:38:02;;;;;;;1.23;1.13;;;17.70;99.90;;;;;;4934719;28;20503;-91
2023/06/23 05:40:29;;;;;;;1.23;1.05;;;17.70;99.90;;;;;;4972578;28;20204;-92
2023/06/23 05:42:56;;;;;;;1.25;1.10;;;17.70;99.90;;;;;;4960876;28;20201;-90
2023/06/23 05:45:23;;;;;;;2.15;1.00;;;17.70;99.90;;;;;;4948874;28;20208;-88
2023/06/23 05:47:59;;;;;;;1.02;1.00;;;17.70;99.90;;;;;;4961955;28;20217;-87
2023/06/23 05:50:31;;;;;;;1.20;1.10;;;17.60;99.90;;;;;;4966334;28;20212;-87
2023/06/23 05:53:02;;;;;;;3.83;1.30;;;17.50;99.90;;;;;;4965992;28;20217;-88
2023/06/23 05:55:30;;;;;;;1.33;1.23;;;17.50;99.90;;;;;;4938761;28;20318;-93
2023/06/23 05:58:02;;;;;;;1.50;1.40;;;17.50;99.90;;;;;;4971383;28;20222;-91
2023/06/23 06:00:34;;;;;;;1.30;1.20;;;17.30;99.90;;;;;;4946933;28;20209;-92
2023/06/23 06:03:04;;;;;;;1.33;1.23;;;17.30;99.90;;;;;;4969124;28;20206;-91
2023/06/23 06:05:35;;;;;;;1.45;1.30;;;17.30;99.90;;;;;;4952290;28;20203;-85
2023/06/23 06:08:03;;;;;;;3.53;1.33;;;17.30;99.90;;;;;;4969423;28;20204;-88
2023/06/23 06:10:32;;;;;;;1.67;1.50;;;17.30;99.90;;;;;;4975907;28;20216;-85
2023/06/23 06:13:01;;;;;;;1.98;1.75;;;17.30;99.90;;;;;;4963854;28;20209;-89
2023/06/23 06:15:29;;;;;;;7.00;1.55;;;17.30;99.90;;;;;;4973400;28;20207;-90
2023/06/23 06:17:59;;;;;;;3.13;2.08;;;17.40;99.90;;;;;;4947160;28;20220;-91
2023/06/23 06:20:28;;;;;;;2.80;1.73;;;17.50;99.90;;;;;;4950476;28;20200;-89
2023/06/23 06:22:58;;;;;;;3.17;1.83;;;17.60;99.90;;;;;;4964998;28;20300;-91
2023/06/23 06:25:28;;;;;;;2.25;1.90;;;17.70;99.90;;;;;;4968524;28;20279;-93
2023/06/23 06:27:57;;;;;;;2.30;2.10;;;17.70;99.90;;;;;;4966486;28;20580;-89
2023/06/23 06:30:25;;;;;;;5.28;2.50;;;17.60;99.90;;;;;;4970001;28;20201;-90
2023/06/23 06:32:54;;;;;;;3.83;2.30;;;17.60;99.90;;;;;;4967567;28;20212;-91
2023/06/23 06:35:23;;;;;;;3.15;2.53;;;17.60;99.90;;;;;;4955386;28;20283;-90
2023/06/23 06:37:51;;;;;;;3.50;2.70;;;17.50;99.90;;;;;;4939765;28;20239;-90
2023/06/23 06:40:24;;;;;;;3.30;3.00;;;17.60;99.90;;;;;;4955493;28;20263;-91
2023/06/23 06:42:51;;;;;;;4.45;3.53;;;17.60;99.90;;;;;;4968727;28;20627;-91
2023/06/23 06:45:18;;;;;;;16.98;15.05;;;17.60;99.90;;;;;;4935830;29;20224;-90
2023/06/23 06:47:46;;;;;;;5.05;4.03;;;17.60;99.90;;;;;;4965277;28;20203;-90
2023/06/23 06:50:15;;;;;;;4.85;4.40;;;17.60;99.90;;;;;;4968747;28;20216;-90
2023/06/23 06:52:44;;;;;;;6.78;4.80;;;17.60;99.90;;;;;;4948853;28;20208;-91
2023/06/23 06:55:17;;;;;;;6.40;4.68;;;17.60;99.90;;;;;;4964495;28;20298;-90
2023/06/23 06:57:46;;;;;;;5.68;5.03;;;17.60;99.90;;;;;;4965619;28;20656;-89
2023/06/23 07:00:14;;;;;;;5.53;5.03;;;17.60;99.90;;;;;;4971382;28;21362;-88
2023/06/23 07:02:42;;;;;;;5.82;5.20;;;17.60;99.90;;;;;;4973742;28;20223;-90
2023/06/23 07:05:09;;;;;;;6.18;5.45;;;17.60;99.90;;;;;;4967241;28;20208;-90
2023/06/23 07:07:36;;;;;;;6.40;5.80;;;17.60;99.90;;;;;;4961233;28;20200;-85
2023/06/23 07:10:04;;;;;;;7.03;5.05;;;17.70;99.90;;;;;;4953968;28;20259;-85
2023/06/23 07:12:32;;;;;;;5.85;5.35;;;17.80;99.90;;;;;;4973252;28;20208;-87
2023/06/23 07:15:00;;;;;;;7.88;6.00;;;17.80;99.90;;;;;;4950010;29;20217;-88
2023/06/23 07:17:27;;;;;;;5.82;5.18;;;17.90;99.90;;;;;;4964202;28;20223;-86
2023/06/23 07:19:54;;;;;;;6.93;5.68;;;18.00;99.90;;;;;;4967736;28;20239;-86
2023/06/23 07:22:21;;;;;;;8.10;5.53;;;18.20;99.90;;;;;;4972204;28;20264;-87
2023/06/23 07:24:48;;;;;;;6.50;5.63;;;18.10;99.90;;;;;;4947612;28;20205;-87
2023/06/23 07:27:16;;;;;;;9.20;5.90;;;18.10;99.90;;;;;;4971858;28;20654;-86
2023/06/23 07:29:43;;;;;;;7.53;6.38;;;18.10;99.90;;;;;;4972069;28;20579;-88
2023/06/23 07:32:14;;;;;;;6.30;5.70;;;18.20;99.90;;;;;;4951532;29;20204;-86
2023/06/23 07:34:41;;;;;;;6.97;6.20;;;18.30;99.90;;;;;;4971606;28;20220;-87
2023/06/23 07:37:09;;;;;;;7.47;6.47;;;18.30;99.90;;;;;;4944892;28;20284;-87
2023/06/23 07:39:36;;;;;;;8.95;6.50;;;18.30;99.90;;;;;;4946961;28;20253;-88
2023/06/23 07:42:03;;;;;;;7.20;6.00;;;18.40;99.90;;;;;;4971362;28;20203;-89
2023/06/23 07:44:31;;;;;;;6.97;6.28;;;18.40;99.90;;;;;;4967450;28;20667;-86
2023/06/23 07:46:58;;;;;;;6.85;6.18;;;18.50;99.90;;;;;;4963439;28;20204;-86
2023/06/23 07:49:27;;;;;;;10.23;6.50;;;18.50;99.90;;;;;;4968477;28;20196;-85
2023/06/23 07:51:54;;;;;;;6.15;5.60;;;18.60;99.40;;;;;;4967277;28;20252;-87
2023/06/23 07:54:21;;;;;;;7.80;6.30;;;18.60;99.80;;;;;;4970103;28;20212;-87
2023/06/23 07:56:48;;;;;;;8.70;6.43;;;18.80;99.90;;;;;;4968052;28;20208;-87
2023/06/23 07:59:15;;;;;;;6.55;5.85;;;18.70;99.90;;;;;;4972288;28;20677;-87
2023/06/23 08:01:42;;;;;;;6.55;6.03;;;18.70;99.90;;;;;;4966863;28;20205;-87
2023/06/23 08:04:09;;;;;;;7.35;6.43;;;18.60;99.30;;;;;;4975098;28;20196;-86
2023/06/23 08:06:37;;;;;;;6.85;6.05;;;18.40;98.90;;;;;;4972974;28;20209;-88
2023/06/23 08:09:04;;;;;;;37.47;32.70;;;18.40;99.70;;;;;;4953441;28;20216;-89
2023/06/23 08:11:31;;;;;;;8.15;7.32;;;18.50;99.60;;;;;;4971390;28;20200;-88
2023/06/23 08:14:00;;;;;;;7.28;6.55;;;18.90;99.70;;;;;;4963406;28;20236;-90
2023/06/23 08:16:26;;;;;;;7.78;6.97;;;19.30;98.10;;;;;;4963445;28;20225;-89
2023/06/23 08:18:53;;;;;;;6.72;5.95;;;19.50;96.80;;;;;;4968854;28;20228;-87
2023/06/23 08:21:20;;;;;;;8.20;7.35;;;19.80;95.90;;;;;;4968699;28;20212;-86
2023/06/23 08:23:49;;;;;;;8.23;6.43;;;20.10;95.40;;;;;;4967637;28;20212;-85
2023/06/23 08:26:17;;;;;;;8.55;7.25;;;20.30;95.00;;;;;;4969940;28;20568;-85
2023/06/23 08:28:44;;;;;;;8.05;7.25;;;20.40;93.40;;;;;;4969914;28;20193;-85
2023/06/23 08:31:11;;;;;;;7.85;6.57;;;20.50;93.20;;;;;;4968728;28;20204;-83
2023/06/23 08:33:39;;;;;;;8.93;6.78;;;20.60;92.80;;;;;;4965329;28;20220;-81
2023/06/23 08:36:06;;;;;;;7.00;6.13;;;20.90;91.90;;;;;;4968420;28;20197;-80
2023/06/23 08:38:33;;;;;;;10.88;7.15;;;21.10;91.60;;;;;;4972156;28;20200;-83
2023/06/23 08:41:02;;;;;;;7.72;6.93;;;21.10;91.20;;;;;;4964464;28;20209;-87
2023/06/23 08:43:29;;;;;;;8.48;7.68;;;21.10;90.80;;;;;;4966534;28;20204;-83
2023/06/23 08:45:58;;;;;;;8.05;7.25;;;21.10;89.50;;;;;;4966054;28;21118;-83
2023/06/23 08:48:26;;;;;;;8.00;6.97;;;21.10;88.20;;;;;;4960890;28;20221;-82
2023/06/23 08:50:54;;;;;;;7.72;7.03;;;21.10;90.30;;;;;;4968470;28;20681;-85
2023/06/23 08:53:22;;;;;;;8.90;7.35;;;21.10;89.00;;;;;;4950030;28;20212;-84
2023/06/23 08:55:50;;;;;;;8.25;7.45;;;20.80;88.90;;;;;;4966794;28;20229;-87
2023/06/23 08:58:19;;;;;;;8.10;7.30;;;20.60;87.70;;;;;;4966941;28;20205;-85
2023/06/23 09:00:46;;;;;;;11.48;8.00;;;20.50;88.00;;;;;;4967015;28;20201;-84
2023/06/23 09:03:13;;;;;;;11.05;7.97;;;20.60;86.70;;;;;;4954098;28;20263;-86
2023/06/23 09:05:41;;;;;;;8.60;7.18;;;20.70;86.60;;;;;;4948954;28;20211;-85
2023/06/23 09:08:08;;;;;;;8.32;7.53;;;20.90;86.00;;;;;;4945677;28;20263;-88
2023/06/23 09:10:35;;;;;;;9.13;7.88;;;21.30;87.50;;;;;;4942782;28;20205;-86
2023/06/23 09:13:24;;;;;;;9.10;8.20;;;22.30;81.10;;;;;;4966179;28;20204;-84
2023/06/23 09:15:52;;;;;;;9.18;8.27;;;23.60;49.10;;;;;;4958457;28;20960;-83
2023/06/23 09:18:19;;;;;;;9.20;7.80;;;23.80;47.20;;;;;;4965861;28;20225;-85
2023/06/23 09:20:47;;;;;;;8.25;7.45;;;23.80;43.50;;;;;;4964730;28;20208;-77
2023/06/23 09:23:16;;;;;;;8.40;7.60;;;23.70;43.20;;;;;;4962832;28;20258;-85
2023/06/23 09:25:45;;;;;;;9.32;8.43;;;23.90;39.30;;;;;;4963383;28;20200;-82
2023/06/23 09:28:24;;;;;;;9.60;8.40;;;23.60;38.40;;;;;;4965852;28;20205;-85
2023/06/23 09:30:52;;;;;;;10.00;9.00;;;23.20;43.40;;;;;;4967723;28;20653;-85
2023/06/23 09:33:20;;;;;;;10.48;8.68;;;23.30;42.40;;;;;;4966684;28;20213;-88
2023/06/23 09:35:50;;;;;;;9.23;8.32;;;23.10;38.60;;;;;;4969450;28;20230;-83
2023/06/23 09:38:21;;;;;;;10.48;9.32;;;23.20;42.40;;;;;;4966793;28;20204;-84
2023/06/23 09:40:48;;;;;;;10.18;8.98;;;23.30;41.10;;;;;;4960433;28;20213;-85
2023/06/23 09:43:16;;;;;;;10.30;9.30;;;23.40;41.50;;;;;;4948366;28;20227;-85
2023/06/23 09:45:45;;;;;;;12.35;9.23;;;23.40;39.60;;;;;;4968983;28;20201;-85
2023/06/23 09:48:19;;;;;;;10.88;9.10;;;23.40;38.00;;;;;;4970515;28;20200;-84
2023/06/23 09:50:59;;;;;;;14.48;9.25;;;23.90;35.00;;;;;;4967212;28;20196;-85
2023/06/23 09:53:26;;;;;;;10.10;9.10;;;23.90;33.90;;;;;;4965551;28;20661;-84
2023/06/23 09:55:53;;;;;;;11.25;10.07;;;23.80;31.80;;;;;;4953454;28;20236;-85
2023/06/23 09:58:20;;;;;;;9.57;8.68;;;23.40;34.90;;;;;;4969749;28;20281;-83
2023/06/23 10:00:48;;;;;;;10.32;9.23;;;23.10;34.80;;;;;;4965640;28;20201;-83
2023/06/23 10:03:15;;;;;;;14.73;9.18;;;22.70;34.30;;;;;;4964756;28;20193;-86
2023/06/23 10:05:42;;;;;;;10.82;8.60;;;22.40;39.30;;;;;;4965876;28;20204;-83
2023/06/23 10:08:11;;;;;;;12.27;9.05;;;22.50;38.10;;;;;;4971219;28;20192;-83
2023/06/23 10:10:43;;;;;;;14.23;10.73;;;22.50;39.80;;;;;;4949090;28;20208;-81
2023/06/23 10:13:10;;;;;;;11.80;9.80;;;22.50;39.80;;;;;;4967118;28;20653;-83
2023/06/23 10:15:39;;;;;;;9.88;8.88;;;22.70;39.50;;;;;;4967395;28;20228;-84
2023/06/23 10:18:10;;;;;;;9.68;8.57;;;22.60;37.70;;;;;;4958704;28;20247;-84
2023/06/23 10:20:37;;;;;;;10.98;9.85;;;22.70;35.20;;;;;;4966556;28;21591;-84
2023/06/23 10:23:04;;;;;;;13.65;12.35;;;22.60;38.70;;;;;;4968241;28;20684;-84
2023/06/23 10:25:35;;;;;;;11.52;9.30;;;22.40;39.00;;;;;;4966413;28;20260;-82
2023/06/23 10:28:08;;;;;;;11.55;9.20;;;22.30;38.90;;;;;;4971122;28;20209;-83
2023/06/23 10:30:35;;;;;;;11.20;8.68;;;22.10;37.70;;;;;;4968939;28;20193;-84
2023/06/23 10:33:03;;;;;;;10.18;8.27;;;22.10;40.90;;;;;;4965934;28;20363;-86
2023/06/23 10:35:33;;;;;;;9.85;7.18;;;22.20;39.90;;;;;;4963102;28;20227;-84
2023/06/23 10:38:04;;;;;;;8.73;6.82;;;22.20;32.00;;;;;;4962843;28;20201;-84
2023/06/23 10:40:37;;;;;;;7.78;6.97;;;22.30;33.50;;;;;;4963640;28;20229;-83
2023/06/23 10:43:06;;;;;;;7.07;6.38;;;22.60;31.60;;;;;;4964521;28;20216;-84
2023/06/23 10:45:33;;;;;;;7.75;6.20;;;22.70;29.80;;;;;;4960563;28;20256;-85
2023/06/23 10:48:01;;;;;;;14.25;12.65;;;22.90;28.40;;;;;;4962050;28;20208;-84
2023/06/23 10:50:29;;;;;;;8.07;6.70;;;22.80;26.30;;;;;;4953076;28;20197;-82
2023/06/23 10:53:09;;;;;;;7.43;6.63;;;22.80;29.20;;;;;;4970908;28;20287;-82
2023/06/23 10:55:38;;;;;;;8.13;7.22;;;22.60;30.00;;;;;;4950245;28;20208;-83
2023/06/23 10:58:16;;;;;;;8.85;7.70;;;22.20;31.00;;;;;;4962650;28;20204;-83
2023/06/23 11:00:57;;;;;;;8.02;7.25;;;21.90;33.60;;;;;;4965779;28;20231;-79
2023/06/23 11:03:32;;;;;;;9.15;6.90;;;21.80;31.70;;;;;;4962412;28;20193;-82
2023/06/23 11:06:00;;;;;;;7.00;6.30;;;21.60;33.50;;;;;;4959764;28;20231;-80
2023/06/23 11:08:33;;;;;;;9.68;7.90;;;21.40;33.20;;;;;;4967222;28;20204;-83
2023/06/23 11:11:03;;;;;;;9.60;7.95;;;21.20;33.10;;;;;;4946781;28;20625;-82
2023/06/23 11:13:41;;;;;;;9.60;7.70;;;21.00;34.60;;;;;;4967418;28;20200;-80
2023/06/23 11:16:14;;;;;;;13.90;8.20;;;20.90;36.90;;;;;;4968274;28;20220;-80
2023/06/23 11:18:49;;;;;;;9.48;7.93;;;20.90;37.80;;;;;;4970109;28;20219;-82
2023/06/23 11:21:17;;;;;;;10.20;8.10;;;20.90;38.40;;;;;;4961444;28;20653;-84
2023/06/23 11:24:08;;;;;;;9.68;8.77;;;21.00;38.70;;;;;;4967595;28;20192;-82
2023/06/23 11:26:35;;;;;;;9.73;7.47;;;21.20;38.00;;;;;;4969209;28;20196;-86
2023/06/23 11:29:08;;;;;;;8.60;7.68;;;21.50;38.20;;;;;;4968440;28;20681;-88
2023/06/23 11:31:35;;;;;;;10.38;8.85;;;21.70;38.30;;;;;;4932671;28;20205;-83
2023/06/23 11:34:04;;;;;;;10.52;9.52;;;22.10;35.10;;;;;;4963849;28;20221;-88
2023/06/23 11:36:33;;;;;;;11.02;9.55;;;22.20;33.90;;;;;;4966706;28;20232;-89
2023/06/23 11:39:00;;;;;;;11.30;9.43;;;22.40;34.80;;;;;;4970771;28;20258;-87
2023/06/23 11:41:31;;;;;;;13.93;10.10;;;22.80;34.40;;;;;;4970733;28;20204;-86
2023/06/23 11:43:59;;;;;;;10.02;9.02;;;23.50;33.60;;;;;;4975325;28;20212;-85
2023/06/23 11:46:26;;;;;;;9.90;8.95;;;24.00;29.50;;;;;;4971372;28;20242;-85
2023/06/23 11:48:53;;;;;;;9.43;8.40;;;24.50;29.30;;;;;;4959915;28;20200;-85
2023/06/23 11:51:21;;;;;;;9.68;8.10;;;24.90;27.60;;;;;;4980042;28;20199;-83
2023/06/23 11:53:50;;;;;;;9.07;8.20;;;24.80;24.80;;;;;;4972911;28;20211;-86
2023/06/23 11:56:18;;;;;;;8.70;7.80;;;24.30;23.80;;;;;;4975230;28;20685;-85
2023/06/23 11:58:51;;;;;;;10.00;8.20;;;23.90;24.60;;;;;;4968258;28;20201;-85
2023/06/23 12:01:19;;;;;;;13.82;7.00;;;23.50;26.20;;;;;;4970230;28;20223;-87
2023/06/23 12:03:47;;;;;;;9.98;6.85;;;23.10;26.70;;;;;;4956599;28;20204;-85
2023/06/23 12:06:16;;;;;;;8.35;6.43;;;23.00;27.20;;;;;;4955179;28;20208;-81
2023/06/23 12:08:43;;;;;;;6.93;5.88;;;23.30;25.40;;;;;;4967717;28;20202;-84
2023/06/23 12:11:10;;;;;;;7.60;5.78;;;23.40;23.10;;;;;;4966339;28;20700;-81
2023/06/23 12:13:38;;;;;;;6.10;4.97;;;23.40;21.90;;;;;;4971362;28;20201;-82
2023/06/23 12:16:06;;;;;;;4.93;4.53;;;23.60;19.70;;;;;;4970396;28;20224;-82
2023/06/23 12:18:42;;;;;;;7.82;5.10;;;23.70;19.90;;;;;;4966909;28;20581;-85
2023/06/23 12:21:10;;;;;;;5.82;5.32;;;23.90;19.50;;;;;;4969413;28;20657;-84
2023/06/23 12:23:38;;;;;;;8.15;5.88;;;24.00;17.50;;;;;;4964477;28;20215;-83
2023/06/23 12:26:06;;;;;;;5.68;5.05;;;24.00;18.20;;;;;;4969252;28;20209;-84
2023/06/23 12:28:33;;;;;;;5.40;4.90;;;24.10;20.20;;;;;;4968131;28;20208;-90
2023/06/23 12:31:00;;;;;;;5.25;4.78;;;24.20;19.00;;;;;;4962743;28;20572;-86
2023/06/23 12:33:29;;;;;;;8.82;7.93;;;24.30;18.50;;;;;;4962398;28;20201;-85
2023/06/23 12:35:58;;;;;;;6.82;5.55;;;24.30;18.10;;;;;;4972624;28;20221;-87
2023/06/23 12:38:25;;;;;;;4.68;4.28;;;24.30;17.80;;;;;;4965475;28;20205;-87
2023/06/23 12:40:52;;;;;;;9.65;5.05;;;24.20;18.20;;;;;;4966878;28;20197;-90
2023/06/23 12:43:19;;;;;;;5.53;4.93;;;24.20;16.50;;;;;;4965391;28;20658;-87
2023/06/23 12:45:49;;;;;;;9.20;4.47;;;24.30;16.40;;;;;;4963995;28;20219;-81
2023/06/23 12:48:16;;;;;;;8.48;4.72;;;24.30;17.50;;;;;;4949772;28;20248;-85
2023/06/23 12:50:45;;;;;;;5.20;4.70;;;24.40;17.00;;;;;;4952663;28;20212;-84
2023/06/23 12:53:12;;;;;;;5.32;4.63;;;24.50;16.90;;;;;;4969174;28;20203;-87
2023/06/23 12:55:39;;;;;;;6.75;4.60;;;24.40;17.20;;;;;;4969103;28;20268;-82